This is the latest recevied weather packets stored in our database for station/object F1GZH-2. If no packets are shown the sender has not sent any weather packets the latest 10 day(s).
| Time | Temp. | Humidity | Pressure | Rain* | Wind** | Luminosity | Snow |
|---|---|---|---|---|---|---|---|
| 1778060666 | 12.78° C | 43% | 1013.6 hPa | 0 mm | - | - | - |
| 1778059465 | 12.22° C | 25% | 1013.5 hPa | 0 mm | - | - | - |
| 1778058264 | 11.67° C | 19% | 1013.3 hPa | 0 mm | - | - | - |
| 1778057063 | 11.67° C | 14% | 1013.1 hPa | 0 mm | - | - | - |
| 1778055862 | 11.11° C | 16% | 1013.1 hPa | 0 mm | - | - | - |
| 1778054661 | 11.67° C | 13% | 1012.9 hPa | 0 mm | - | - | - |
| 1778053460 | 11.67° C | 12% | 1012.5 hPa | 0 mm | - | - | - |
| 1778001241 | 15.56° C | 74% | 1012 hPa | 0 mm | - | - | - |
| 1778000040 | 16.11° C | 73% | 1012 hPa | 0 mm | - | - | - |
| 1777998839 | 15.56° C | 73% | 1012.1 hPa | 0 mm | - | - | - |
| 1777997638 | 16.11° C | 71% | 1012.2 hPa | 0 mm | - | - | - |
| 1777996436 | 16.67° C | 66% | 1012 hPa | 0 mm | - | - | - |
| 1777995235 | 16.67° C | 59% | 1012.4 hPa | 0 mm | - | - | - |
| 1777994034 | 15° C | 54% | 1012.3 hPa | 0 mm | - | - | - |
| 1777992833 | 14.44° C | 53% | 1012.1 hPa | 0 mm | - | - | - |
| 1777991632 | 13.89° C | 58% | 1011.9 hPa | 0 mm | - | - | - |
| 1777990431 | 13.89° C | 66% | 1012.1 hPa | 0 mm | - | - | - |
| 1777989230 | 14.44° C | 72% | 1012.2 hPa | 0 mm | - | - | - |
| 1777988029 | 15° C | 77% | 1012.3 hPa | 0 mm | - | - | - |
| 1777986827 | 17.78° C | 76% | 1012.2 hPa | 0 mm | - | - | - |
| 1777985626 | 18.89° C | 73% | 1012.2 hPa | 0 mm | - | - | - |
| 1777984425 | 19.44° C | 76% | 1012.2 hPa | 0 mm | - | - | - |
| 1777983224 | 18.33° C | 75% | 1012.6 hPa | 0 mm | - | - | - |
| 1777982023 | 16.67° C | 67% | 1012.7 hPa | 0 mm | - | - | - |
| 1777980822 | 16.11° C | 63% | 1012.9 hPa | 0 mm | - | - | - |
* Rain latest hour (hover to see other rain measurements)
** Current wind speed in m/s (hover to see current wind gust speed)